Time;durP1;ratioP1;P1;durP2;ratioP2;P2;SDS_P1;SDS_P2;PMS_P1;PMS_P2;Temp;Humidity;BMP_temperature;BMP_pressure;BME280_temperature;BME280_humidity;BME280_pressure;Samples;Min_cycle;Max_cycle;Signal;HPM_P1;HPM_P2
2021/05/30 00:02:26;;;;;;;6.85;1.35;;;;;;;;;;7034642;28;20093;-80
2021/05/30 00:05:46;;;;;;;1.33;1.10;;;;;;;;;;7053930;28;20051;-81
2021/05/30 00:09:07;;;;;;;1.45;1.08;;;;;;;;;;7051871;28;20043;-79
2021/05/30 00:12:27;;;;;;;2.10;1.10;;;;;;;;;;7053162;28;20088;-80
2021/05/30 00:15:47;;;;;;;1.95;1.20;;;;;;;;;;7052832;28;20104;-80
2021/05/30 00:19:08;;;;;;;1.55;0.90;;;;;;;;;;7053147;28;20131;-80
2021/05/30 00:22:28;;;;;;;4.65;1.33;;;;;;;;;;7047899;28;20059;-80
2021/05/30 00:25:49;;;;;;;1.75;1.00;;;;;;;;;;7052084;28;20465;-79
2021/05/30 00:29:09;;;;;;;1.02;1.00;;;;;;;;;;7040514;28;20183;-79
2021/05/30 00:32:30;;;;;;;2.47;1.30;;;;;;;;;;7056284;22;20053;-76
2021/05/30 00:35:50;;;;;;;1.23;0.98;;;;;;;;;;6968825;28;20051;-76
2021/05/30 00:39:10;;;;;;;1.30;1.20;;;;;;;;;;6965115;28;20076;-76
2021/05/30 00:42:31;;;;;;;3.65;1.20;;;;;;;;;;6972544;28;20099;-76
2021/05/30 00:45:51;;;;;;;2.03;1.20;;;;;;;;;;6956653;28;20621;-76
2021/05/30 00:49:12;;;;;;;3.85;1.17;;;;;;;;;;6975251;28;20057;-77
2021/05/30 00:52:32;;;;;;;4.57;1.65;;;;;;;;;;6975531;28;20470;-75
2021/05/30 00:55:53;;;;;;;1.63;0.90;;;;;;;;;;6975636;28;20572;-79
2021/05/30 00:59:13;;;;;;;1.95;0.90;;;;;;;;;;6957905;28;20064;-77
2021/05/30 01:02:34;;;;;;;1.48;0.80;;;;;;;;;;6988331;28;20104;-76
2021/05/30 01:05:55;;;;;;;1.13;0.80;;;;;;;;;;6975344;28;20084;-77
2021/05/30 01:09:15;;;;;;;1.10;0.90;;;;;;;;;;6961113;28;20385;-77
2021/05/30 01:12:36;;;;;;;3.78;1.25;;;;;;;;;;6971761;28;20084;-76
2021/05/30 01:15:56;;;;;;;1.55;0.85;;;;;;;;;;6972598;28;20059;-77
2021/05/30 01:19:18;;;;;;;2.28;1.30;;;;;;;;;;6977409;28;20060;-77
2021/05/30 01:22:39;;;;;;;1.00;0.90;;;;;;;;;;6973003;28;20048;-76
2021/05/30 01:26:00;;;;;;;0.90;0.80;;;;;;;;;;6955433;28;20079;-76
2021/05/30 01:29:20;;;;;;;6.97;1.05;;;;;;;;;;6975510;28;20500;-76
2021/05/30 01:32:42;;;;;;;1.75;1.05;;;;;;;;;;6974388;28;20046;-77
2021/05/30 01:36:03;;;;;;;2.78;0.90;;;;;;;;;;6974715;28;20033;-76
2021/05/30 01:39:26;;;;;;;1.10;0.90;;;;;;;;;;6975085;28;20060;-76
2021/05/30 01:42:48;;;;;;;1.65;0.93;;;;;;;;;;6960915;28;20057;-76
2021/05/30 01:46:09;;;;;;;0.80;0.80;;;;;;;;;;6974523;28;20045;-77
2021/05/30 01:49:29;;;;;;;0.85;0.82;;;;;;;;;;6974356;28;20052;-76
2021/05/30 01:52:50;;;;;;;6.50;1.00;;;;;;;;;;6975074;28;20080;-77
2021/05/30 01:59:34;;;;;;;1.15;1.00;;;;;;;;;;6974974;28;20063;-76
2021/05/30 02:02:56;;;;;;;1.38;0.90;;;;;;;;;;6974943;28;20049;-77
2021/05/30 02:06:17;;;;;;;1.25;0.90;;;;;;;;;;6974675;28;20059;-77
2021/05/30 02:09:38;;;;;;;1.35;0.88;;;;;;;;;;6956324;28;20056;-76
2021/05/30 02:12:58;;;;;;;1.48;0.88;;;;;;;;;;6973568;28;20049;-76
2021/05/30 02:16:19;;;;;;;1.02;0.93;;;;;;;;;;6973450;28;20402;-77
2021/05/30 02:19:39;;;;;;;1.70;0.98;;;;;;;;;;6954760;28;20136;-77
2021/05/30 02:23:00;;;;;;;1.10;1.00;;;;;;;;;;6971834;28;20049;-76
2021/05/30 02:26:20;;;;;;;0.98;0.90;;;;;;;;;;6985851;28;20103;-76
2021/05/30 02:29:43;;;;;;;2.25;1.30;;;;;;;;;;6979364;28;20111;-77
2021/05/30 02:33:04;;;;;;;1.00;0.90;;;;;;;;;;6976807;28;20167;-75
2021/05/30 02:36:24;;;;;;;1.05;0.90;;;;;;;;;;6977701;28;20040;-76
2021/05/30 02:39:45;;;;;;;1.73;1.20;;;;;;;;;;6977902;28;20076;-76
2021/05/30 02:43:06;;;;;;;0.70;0.70;;;;;;;;;;6962039;28;20037;-75
2021/05/30 02:46:26;;;;;;;4.28;0.90;;;;;;;;;;6971921;28;20442;-76
2021/05/30 02:49:47;;;;;;;0.80;0.80;;;;;;;;;;6971228;28;20425;-77
2021/05/30 02:53:07;;;;;;;1.63;1.02;;;;;;;;;;6969503;28;20132;-76
2021/05/30 02:56:29;;;;;;;1.15;0.80;;;;;;;;;;6970774;28;20052;-75
2021/05/30 02:59:49;;;;;;;0.95;0.90;;;;;;;;;;6974075;28;20045;-75
2021/05/30 03:03:10;;;;;;;1.23;0.98;;;;;;;;;;6971986;28;20051;-76
2021/05/30 03:06:30;;;;;;;0.70;0.70;;;;;;;;;;6973862;28;20139;-74
2021/05/30 03:09:50;;;;;;;1.13;1.02;;;;;;;;;;6974168;28;20052;-75
2021/05/30 03:13:11;;;;;;;1.05;0.90;;;;;;;;;;6971524;28;20052;-76
2021/05/30 03:16:31;;;;;;;0.90;0.90;;;;;;;;;;6979362;28;20048;-75
2021/05/30 03:19:52;;;;;;;0.90;0.88;;;;;;;;;;6975756;28;20387;-76
2021/05/30 03:23:12;;;;;;;1.67;1.10;;;;;;;;;;6979463;28;20549;-76
2021/05/30 03:26:33;;;;;;;0.80;0.70;;;;;;;;;;6973654;28;20041;-76
2021/05/30 03:29:56;;;;;;;1.02;0.93;;;;;;;;;;6955446;28;20081;-75
2021/05/30 03:33:16;;;;;;;0.75;0.75;;;;;;;;;;6986583;28;20063;-75
2021/05/30 03:36:37;;;;;;;1.67;0.80;;;;;;;;;;6982106;28;20080;-76
2021/05/30 03:40:02;;;;;;;1.02;0.93;;;;;;;;;;6973454;28;20530;-75
2021/05/30 03:43:22;;;;;;;0.80;0.80;;;;;;;;;;6971706;28;20036;-76
2021/05/30 03:46:42;;;;;;;1.08;0.80;;;;;;;;;;6972107;28;20073;-77
2021/05/30 03:50:03;;;;;;;0.90;0.90;;;;;;;;;;6975237;28;20089;-76
2021/05/30 03:53:24;;;;;;;0.98;0.88;;;;;;;;;;6976496;28;20109;-77
2021/05/30 03:56:44;;;;;;;0.80;0.80;;;;;;;;;;6990662;28;20111;-78
2021/05/30 04:00:07;;;;;;;0.80;0.73;;;;;;;;;;6965609;28;20064;-77
2021/05/30 04:03:27;;;;;;;1.63;1.00;;;;;;;;;;6977056;28;20045;-77
2021/05/30 04:06:47;;;;;;;1.17;0.95;;;;;;;;;;6977240;28;20088;-76
2021/05/30 04:10:10;;;;;;;1.63;0.95;;;;;;;;;;6977535;28;20091;-76
2021/05/30 04:13:30;;;;;;;1.42;0.88;;;;;;;;;;6974520;28;20057;-75
2021/05/30 04:16:51;;;;;;;0.98;0.98;;;;;;;;;;6950026;28;20088;-76
2021/05/30 04:20:15;;;;;;;1.33;1.00;;;;;;;;;;6958115;28;20049;-77
2021/05/30 04:23:35;;;;;;;0.77;0.70;;;;;;;;;;6972476;28;20052;-77
2021/05/30 04:26:56;;;;;;;1.10;1.00;;;;;;;;;;6985581;28;20048;-75
2021/05/30 04:30:16;;;;;;;1.33;0.85;;;;;;;;;;6976007;28;20525;-78
2021/05/30 04:33:37;;;;;;;2.92;0.75;;;;;;;;;;6976475;28;20045;-75
2021/05/30 04:36:58;;;;;;;1.17;1.00;;;;;;;;;;6975583;28;20045;-76
2021/05/30 04:40:20;;;;;;;0.88;0.82;;;;;;;;;;6973413;28;20482;-76
2021/05/30 04:43:41;;;;;;;0.68;0.63;;;;;;;;;;6939317;28;20416;-77
2021/05/30 04:47:01;;;;;;;2.60;0.90;;;;;;;;;;6975509;28;20077;-75
2021/05/30 04:50:22;;;;;;;0.80;0.80;;;;;;;;;;6963692;28;20388;-76
2021/05/30 04:53:44;;;;;;;0.80;0.80;;;;;;;;;;6985547;28;20049;-77
2021/05/30 04:57:05;;;;;;;0.82;0.82;;;;;;;;;;6965687;28;20041;-76
2021/05/30 05:00:26;;;;;;;0.75;0.70;;;;;;;;;;6970396;28;20049;-76
2021/05/30 05:03:46;;;;;;;0.77;0.77;;;;;;;;;;6975603;28;20084;-77
2021/05/30 05:07:06;;;;;;;0.80;0.80;;;;;;;;;;6983845;28;20044;-75
2021/05/30 05:10:27;;;;;;;4.57;1.20;;;;;;;;;;6975216;28;20052;-76
2021/05/30 05:13:47;;;;;;;0.70;0.70;;;;;;;;;;6976301;28;20132;-77
2021/05/30 05:17:08;;;;;;;1.85;0.98;;;;;;;;;;6983779;28;20036;-77
2021/05/30 05:20:28;;;;;;;1.50;1.17;;;;;;;;;;6973451;28;20052;-75
2021/05/30 05:23:48;;;;;;;1.63;0.90;;;;;;;;;;6961209;28;20080;-75
2021/05/30 05:27:09;;;;;;;0.80;0.80;;;;;;;;;;6965856;28;20052;-76
2021/05/30 05:30:30;;;;;;;0.82;0.80;;;;;;;;;;6970426;28;20076;-76
2021/05/30 05:33:50;;;;;;;0.95;0.90;;;;;;;;;;6964363;28;20042;-75
2021/05/30 05:37:10;;;;;;;2.00;1.90;;;;;;;;;;6943667;28;20099;-76
2021/05/30 05:40:31;;;;;;;2.20;2.10;;;;;;;;;;6973858;28;20056;-76
2021/05/30 05:43:51;;;;;;;2.00;1.90;;;;;;;;;;6976869;28;20052;-77
2021/05/30 05:47:12;;;;;;;6.63;6.22;;;;;;;;;;6969896;28;20084;-76
2021/05/30 05:50:32;;;;;;;5.65;4.97;;;;;;;;;;6963680;28;20147;-77
2021/05/30 05:53:53;;;;;;;5.47;5.18;;;;;;;;;;6976558;28;20076;-76
2021/05/30 05:57:13;;;;;;;1.58;1.05;;;;;;;;;;6979991;28;20053;-77
2021/05/30 06:00:34;;;;;;;2.80;1.15;;;;;;;;;;6975058;28;20053;-76
2021/05/30 06:03:54;;;;;;;0.80;0.80;;;;;;;;;;6972418;28;20482;-76
2021/05/30 06:07:15;;;;;;;0.85;0.85;;;;;;;;;;6980153;28;20580;-78
2021/05/30 06:10:35;;;;;;;1.05;0.95;;;;;;;;;;6975229;28;20099;-78
2021/05/30 06:13:55;;;;;;;12.18;1.50;;;;;;;;;;6973577;28;20049;-76
2021/05/30 06:17:16;;;;;;;2.63;1.40;;;;;;;;;;6974620;28;20037;-77
2021/05/30 06:20:37;;;;;;;5.30;1.40;;;;;;;;;;6974847;28;20033;-77
2021/05/30 06:23:58;;;;;;;7.60;1.30;;;;;;;;;;6970131;28;20068;-76
2021/05/30 06:27:18;;;;;;;3.60;1.20;;;;;;;;;;6979912;28;20041;-76
2021/05/30 06:30:41;;;;;;;1.20;1.10;;;;;;;;;;6973310;28;20140;-76
2021/05/30 06:34:01;;;;;;;1.52;1.30;;;;;;;;;;6971888;28;20088;-77
2021/05/30 06:37:21;;;;;;;1.40;1.10;;;;;;;;;;6976289;28;20049;-76
2021/05/30 06:40:42;;;;;;;1.75;1.40;;;;;;;;;;6973398;28;20099;-77
2021/05/30 06:44:03;;;;;;;1.00;1.00;;;;;;;;;;6978730;28;20056;-76
2021/05/30 06:47:24;;;;;;;2.33;1.10;;;;;;;;;;6978246;28;20111;-78
2021/05/30 06:50:44;;;;;;;0.90;0.90;;;;;;;;;;6978699;28;20053;-77
2021/05/30 06:54:05;;;;;;;1.20;1.10;;;;;;;;;;6959007;28;20045;-77
2021/05/30 06:57:26;;;;;;;1.15;1.05;;;;;;;;;;6950171;28;20052;-78
2021/05/30 07:00:46;;;;;;;1.20;1.10;;;;;;;;;;6964707;28;20065;-78
2021/05/30 07:04:07;;;;;;;1.10;1.00;;;;;;;;;;6965226;28;20114;-77
2021/05/30 07:07:27;;;;;;;1.10;1.00;;;;;;;;;;6966652;28;20048;-79
2021/05/30 07:10:47;;;;;;;1.20;1.10;;;;;;;;;;6993809;28;20075;-78
2021/05/30 07:14:08;;;;;;;1.00;1.00;;;;;;;;;;6975779;28;20072;-77
2021/05/30 07:17:28;;;;;;;3.45;1.10;;;;;;;;;;6948650;28;20435;-78
2021/05/30 07:20:51;;;;;;;4.57;1.05;;;;;;;;;;6965758;28;20502;-75
2021/05/30 07:24:12;;;;;;;6.72;1.40;;;;;;;;;;6975240;28;20049;-74
2021/05/30 07:27:32;;;;;;;2.38;1.02;;;;;;;;;;6970755;28;20045;-75
2021/05/30 07:30:53;;;;;;;5.10;1.20;;;;;;;;;;6974431;28;20052;-76
2021/05/30 07:34:13;;;;;;;3.38;1.05;;;;;;;;;;6970150;28;20404;-76
2021/05/30 07:37:34;;;;;;;6.07;1.13;;;;;;;;;;6972064;28;20053;-75
2021/05/30 07:40:54;;;;;;;1.52;1.10;;;;;;;;;;6959202;28;20040;-75
2021/05/30 07:44:15;;;;;;;1.35;1.02;;;;;;;;;;6975556;28;20044;-75
2021/05/30 07:47:35;;;;;;;1.15;1.10;;;;;;;;;;6974505;28;20479;-74
2021/05/30 07:50:56;;;;;;;1.98;1.27;;;;;;;;;;6956891;28;20072;-74
2021/05/30 07:54:17;;;;;;;1.58;1.17;;;;;;;;;;6974643;28;20044;-75
2021/05/30 07:57:38;;;;;;;1.38;1.15;;;;;;;;;;6973124;28;20045;-75
2021/05/30 08:00:58;;;;;;;1.20;1.10;;;;;;;;;;6972344;28;20075;-75
2021/05/30 08:04:19;;;;;;;1.27;0.98;;;;;;;;;;6985776;28;20370;-75
2021/05/30 08:07:39;;;;;;;2.70;1.25;;;;;;;;;;6957158;28;20068;-75
2021/05/30 08:11:00;;;;;;;1.10;1.00;;;;;;;;;;6990931;28;20162;-75
2021/05/30 08:14:24;;;;;;;1.38;1.10;;;;;;;;;;6991299;28;20109;-75
2021/05/30 08:17:46;;;;;;;2.72;1.00;;;;;;;;;;6986773;28;20127;-75
2021/05/30 08:21:06;;;;;;;2.28;1.17;;;;;;;;;;6981247;28;20075;-75
2021/05/30 08:24:27;;;;;;;2.22;1.10;;;;;;;;;;6974173;28;20040;-75
2021/05/30 08:27:48;;;;;;;1.13;1.02;;;;;;;;;;6970740;28;20063;-75
2021/05/30 08:31:09;;;;;;;1.15;1.05;;;;;;;;;;6984833;28;20045;-76
2021/05/30 08:34:29;;;;;;;4.93;1.15;;;;;;;;;;6973465;28;20056;-76
2021/05/30 08:37:50;;;;;;;1.27;1.00;;;;;;;;;;6971914;28;20049;-76
2021/05/30 08:41:11;;;;;;;2.28;1.20;;;;;;;;;;6973342;28;20438;-75
2021/05/30 08:44:32;;;;;;;2.05;1.10;;;;;;;;;;6975392;28;20100;-75
2021/05/30 08:47:53;;;;;;;1.00;1.00;;;;;;;;;;6982410;28;20052;-75
2021/05/30 08:51:15;;;;;;;3.70;0.80;;;;;;;;;;6979205;28;20510;-76
2021/05/30 08:54:35;;;;;;;1.80;1.20;;;;;;;;;;6978697;28;20071;-76
2021/05/30 08:57:57;;;;;;;0.93;0.80;;;;;;;;;;6973591;28;20092;-76
2021/05/30 09:01:22;;;;;;;2.95;1.00;;;;;;;;;;6984451;28;20428;-76
2021/05/30 09:04:53;;;;;;;2.45;1.30;;;;;;;;;;6973295;28;20056;-75
2021/05/30 09:08:29;;;;;;;1.15;1.08;;;;;;;;;;6959810;28;20049;-75
2021/05/30 09:11:51;;;;;;;1.60;1.10;;;;;;;;;;6955842;28;20048;-77
2021/05/30 09:15:24;;;;;;;1.20;1.10;;;;;;;;;;6986712;28;20041;-74
2021/05/30 09:18:44;;;;;;;2.38;1.02;;;;;;;;;;6971435;28;20091;-76
2021/05/30 09:22:21;;;;;;;1.17;1.08;;;;;;;;;;6969034;28;20049;-74
2021/05/30 09:25:42;;;;;;;2.65;1.00;;;;;;;;;;6957969;28;20120;-75
2021/05/30 09:29:10;;;;;;;3.90;1.00;;;;;;;;;;6959553;28;20073;-78
2021/05/30 09:32:30;;;;;;;2.40;1.00;;;;;;;;;;6958854;28;20060;-74
2021/05/30 09:35:53;;;;;;;4.10;1.52;;;;;;;;;;6953771;28;20055;-75
2021/05/30 09:39:13;;;;;;;2.08;1.10;;;;;;;;;;6971504;28;20057;-74
2021/05/30 09:42:36;;;;;;;5.63;1.00;;;;;;;;;;6968050;28;20197;-75
2021/05/30 09:46:12;;;;;;;3.03;0.82;;;;;;;;;;6970027;28;20045;-74
2021/05/30 09:49:52;;;;;;;2.03;1.20;;;;;;;;;;6967807;28;20064;-74
2021/05/30 09:53:13;;;;;;;2.08;0.95;;;;;;;;;;6970118;28;20507;-75
2021/05/30 09:56:41;;;;;;;1.63;1.00;;;;;;;;;;6971119;28;20095;-75
2021/05/30 10:00:02;;;;;;;1.80;1.02;;;;;;;;;;6970583;28;20449;-76
2021/05/30 10:03:23;;;;;;;1.80;1.20;;;;;;;;;;6970717;28;20550;-74
2021/05/30 10:06:44;;;;;;;1.23;0.93;;;;;;;;;;6970222;28;20045;-74
2021/05/30 10:10:05;;;;;;;1.60;1.10;;;;;;;;;;6983755;28;20055;-74
2021/05/30 10:13:27;;;;;;;3.60;1.05;;;;;;;;;;6980313;28;20070;-75
2021/05/30 10:16:47;;;;;;;3.53;1.10;;;;;;;;;;6998156;28;20094;-75
2021/05/30 10:20:19;;;;;;;1.42;1.10;;;;;;;;;;6987036;28;20117;-74
2021/05/30 10:23:43;;;;;;;1.10;0.98;;;;;;;;;;6928051;28;20523;-74
2021/05/30 10:27:20;;;;;;;1.45;1.00;;;;;;;;;;6940359;28;20052;-75
2021/05/30 10:30:51;;;;;;;1.73;1.00;;;;;;;;;;6942524;28;20053;-75
2021/05/30 10:34:24;;;;;;;1.25;1.10;;;;;;;;;;6924157;28;20450;-75
2021/05/30 10:37:55;;;;;;;1.10;0.90;;;;;;;;;;6929761;28;20050;-75
2021/05/30 10:41:17;;;;;;;2.03;1.02;;;;;;;;;;6920714;28;20084;-75
2021/05/30 10:45:04;;;;;;;1.27;0.93;;;;;;;;;;6929616;28;20046;-74
2021/05/30 10:48:24;;;;;;;1.10;0.90;;;;;;;;;;6958565;28;20048;-74
2021/05/30 10:51:49;;;;;;;1.33;1.10;;;;;;;;;;6946575;28;20053;-76
2021/05/30 10:55:16;;;;;;;1.83;1.08;;;;;;;;;;6942055;28;20049;-74
2021/05/30 10:58:36;;;;;;;1.48;1.00;;;;;;;;;;6942210;28;20047;-75
2021/05/30 11:02:00;;;;;;;2.03;1.30;;;;;;;;;;6939453;28;20046;-75
2021/05/30 11:05:48;;;;;;;1.45;1.08;;;;;;;;;;6954896;28;20056;-75
2021/05/30 11:09:08;;;;;;;1.88;0.90;;;;;;;;;;6937386;28;20120;-77
2021/05/30 11:12:33;;;;;;;1.35;1.00;;;;;;;;;;6943852;28;20045;-75
2021/05/30 11:16:06;;;;;;;1.33;0.98;;;;;;;;;;6943361;28;20109;-75
2021/05/30 11:19:27;;;;;;;1.95;1.10;;;;;;;;;;6944445;28;20072;-75
2021/05/30 11:22:53;;;;;;;1.73;1.00;;;;;;;;;;6944301;28;20041;-75
2021/05/30 11:26:13;;;;;;;2.58;1.02;;;;;;;;;;6949678;28;20072;-75
2021/05/30 11:29:34;;;;;;;1.13;0.90;;;;;;;;;;6956032;28;20395;-74
2021/05/30 11:32:54;;;;;;;1.00;0.90;;;;;;;;;;6946481;28;20478;-74
2021/05/30 11:36:18;;;;;;;1.98;1.50;;;;;;;;;;6944330;28;20084;-76
2021/05/30 11:39:41;;;;;;;1.77;1.00;;;;;;;;;;6944178;28;20033;-75
2021/05/30 11:43:16;;;;;;;1.70;1.10;;;;;;;;;;6943103;28;20061;-76
2021/05/30 11:46:45;;;;;;;2.15;1.10;;;;;;;;;;6939929;28;20049;-75
2021/05/30 11:50:06;;;;;;;;;;;;;;;;;;6945484;28;20136;-75
2021/05/30 11:53:34;;;;;;;4.18;1.38;;;;;;;;;;6946526;28;19917;-75
2021/05/30 11:56:57;;;;;;;1.07;1.07;;;;;;;;;;6944204;28;20045;-76
2021/05/30 12:00:18;;;;;;;1.38;1.00;;;;;;;;;;6924869;28;20072;-76
2021/05/30 12:03:48;;;;;;;1.17;1.05;;;;;;;;;;6926469;28;20053;-74
2021/05/30 12:07:14;;;;;;;1.20;0.95;;;;;;;;;;6951892;28;20040;-75
2021/05/30 12:10:34;;;;;;;0.95;0.95;;;;;;;;;;6941295;28;20402;-76
2021/05/30 12:14:02;;;;;;;1.40;1.30;;;;;;;;;;6942470;28;20058;-74
2021/05/30 12:17:23;;;;;;;1.30;0.90;;;;;;;;;;6934406;28;20049;-74
2021/05/30 12:20:44;;;;;;;1.95;1.30;;;;;;;;;;6927752;28;20085;-75
2021/05/30 12:24:06;;;;;;;3.00;1.00;;;;;;;;;;6943482;28;20499;-75
2021/05/30 12:27:27;;;;;;;0.90;0.90;;;;;;;;;;6934714;28;20037;-75
2021/05/30 12:30:49;;;;;;;1.52;0.90;;;;;;;;;;7089995;22;20424;-82
2021/05/30 12:34:10;;;;;;;1.00;1.00;;;;;;;;;;7007836;28;20060;-82
2021/05/30 12:37:44;;;;;;;1.17;1.05;;;;;;;;;;7000248;28;20036;-82
2021/05/30 12:41:13;;;;;;;1.52;0.98;;;;;;;;;;7002096;28;20058;-82
2021/05/30 12:44:42;;;;;;;1.00;1.00;;;;;;;;;;6998833;28;20486;-82
2021/05/30 12:48:03;;;;;;;1.27;1.02;;;;;;;;;;7011183;28;20268;-82
2021/05/30 12:51:28;;;;;;;3.22;1.02;;;;;;;;;;7000858;28;20136;-82
2021/05/30 12:54:58;;;;;;;0.80;0.80;;;;;;;;;;6993485;28;20036;-82
2021/05/30 12:58:19;;;;;;;2.25;1.00;;;;;;;;;;6995057;28;21011;-82
2021/05/30 13:01:42;;;;;;;1.50;1.15;;;;;;;;;;7002007;28;20037;-83
2021/05/30 13:05:04;;;;;;;1.00;1.00;;;;;;;;;;7015974;28;20047;-82
2021/05/30 13:08:29;;;;;;;1.30;0.90;;;;;;;;;;7009565;28;20055;-82
2021/05/30 13:11:50;;;;;;;0.90;0.90;;;;;;;;;;7002889;28;20080;-82
2021/05/30 13:15:21;;;;;;;3.38;1.23;;;;;;;;;;6999091;28;20426;-82
2021/05/30 13:18:52;;;;;;;1.02;1.00;;;;;;;;;;6995517;28;20053;-81
2021/05/30 13:22:12;;;;;;;0.90;0.90;;;;;;;;;;7022015;28;20078;-81
2021/05/30 13:25:43;;;;;;;1.13;0.88;;;;;;;;;;7023962;28;20044;-81
2021/05/30 13:29:03;;;;;;;1.00;1.00;;;;;;;;;;7007553;28;20116;-81
2021/05/30 13:32:23;;;;;;;1.75;1.02;;;;;;;;;;7000461;28;20040;-81
2021/05/30 13:35:45;;;;;;;0.90;0.90;;;;;;;;;;6995827;28;20123;-81
2021/05/30 13:39:05;;;;;;;1.10;0.98;;;;;;;;;;7013909;28;20054;-81
2021/05/30 13:42:26;;;;;;;1.20;1.10;;;;;;;;;;7018918;28;20126;-81
2021/05/30 13:45:48;;;;;;;1.02;1.00;;;;;;;;;;7008218;28;20052;-81
2021/05/30 13:49:08;;;;;;;1.20;1.10;;;;;;;;;;7009403;28;20044;-81
2021/05/30 13:52:29;;;;;;;1.40;1.10;;;;;;;;;;7005584;28;20047;-81
2021/05/30 13:55:49;;;;;;;0.95;0.90;;;;;;;;;;6994029;28;20044;-81
2021/05/30 13:59:10;;;;;;;1.33;0.90;;;;;;;;;;7003626;28;20139;-81
2021/05/30 14:02:30;;;;;;;0.95;0.90;;;;;;;;;;6990533;28;20405;-81
2021/05/30 14:05:51;;;;;;;1.00;1.00;;;;;;;;;;6992554;28;20194;-82
2021/05/30 14:09:12;;;;;;;1.40;0.95;;;;;;;;;;6993884;28;20048;-81
2021/05/30 14:12:32;;;;;;;1.50;1.00;;;;;;;;;;6989562;28;20060;-81
2021/05/30 14:15:53;;;;;;;1.05;1.00;;;;;;;;;;6993012;28;20044;-82
2021/05/30 14:19:13;;;;;;;0.85;0.85;;;;;;;;;;6986550;28;20050;-81
2021/05/30 14:22:34;;;;;;;0.90;0.90;;;;;;;;;;6990898;28;20123;-81
2021/05/30 14:25:55;;;;;;;0.73;0.73;;;;;;;;;;6990919;28;20052;-81
2021/05/30 14:29:15;;;;;;;1.13;1.02;;;;;;;;;;6992815;28;20071;-81
2021/05/30 14:32:36;;;;;;;1.50;1.20;;;;;;;;;;6998875;28;20118;-81
2021/05/30 14:35:57;;;;;;;1.20;1.10;;;;;;;;;;7001394;28;20044;-81
2021/05/30 14:39:17;;;;;;;1.20;1.10;;;;;;;;;;7002715;28;20036;-81
2021/05/30 14:42:38;;;;;;;2.80;0.90;;;;;;;;;;6993377;28;20047;-81
2021/05/30 14:45:58;;;;;;;1.23;1.13;;;;;;;;;;6993448;28;20048;-81
2021/05/30 14:49:19;;;;;;;1.88;1.00;;;;;;;;;;6999754;28;20036;-81
2021/05/30 14:52:41;;;;;;;1.10;1.00;;;;;;;;;;6995217;28;20051;-81
2021/05/30 14:56:01;;;;;;;1.08;0.98;;;;;;;;;;7000348;28;20044;-81
2021/05/30 14:59:22;;;;;;;1.42;1.20;;;;;;;;;;7007641;28;20036;-81
2021/05/30 15:02:43;;;;;;;1.00;0.90;;;;;;;;;;6996558;28;20044;-81
2021/05/30 15:06:03;;;;;;;2.35;1.42;;;;;;;;;;6992391;28;20596;-81
2021/05/30 15:09:24;;;;;;;2.85;0.88;;;;;;;;;;6996505;28;20049;-81
2021/05/30 15:12:45;;;;;;;2.05;1.00;;;;;;;;;;6998203;28;20102;-81
2021/05/30 15:16:05;;;;;;;1.45;1.10;;;;;;;;;;6997777;28;20138;-81
2021/05/30 15:19:26;;;;;;;1.33;1.00;;;;;;;;;;6991888;28;20041;-82
2021/05/30 15:22:49;;;;;;;1.58;1.20;;;;;;;;;;7000143;28;20186;-82
2021/05/30 15:26:10;;;;;;;1.00;1.00;;;;;;;;;;7009856;28;20445;-82
2021/05/30 15:29:30;;;;;;;1.55;0.75;;;;;;;;;;7020172;28;20045;-81
2021/05/30 15:32:51;;;;;;;4.60;1.00;;;;;;;;;;7001009;28;20503;-82
2021/05/30 15:36:13;;;;;;;0.93;0.82;;;;;;;;;;7019591;28;20066;-80
2021/05/30 15:39:34;;;;;;;1.20;1.10;;;;;;;;;;7026686;28;20048;-80
2021/05/30 15:42:55;;;;;;;1.65;1.23;;;;;;;;;;6989253;28;20052;-80
2021/05/30 15:46:15;;;;;;;2.22;1.00;;;;;;;;;;7012699;28;20045;-79
2021/05/30 15:49:36;;;;;;;1.23;1.13;;;;;;;;;;6996545;28;20052;-80
2021/05/30 15:52:56;;;;;;;3.75;1.30;;;;;;;;;;6997237;28;20044;-80
2021/05/30 15:56:17;;;;;;;1.58;0.95;;;;;;;;;;6996151;28;20123;-81
2021/05/30 15:59:37;;;;;;;2.55;0.90;;;;;;;;;;7007262;28;20056;-80
2021/05/30 16:02:58;;;;;;;1.63;1.23;;;;;;;;;;6991487;28;20063;-81
2021/05/30 16:06:19;;;;;;;0.93;0.90;;;;;;;;;;6991195;28;20055;-80
2021/05/30 16:09:39;;;;;;;0.88;0.88;;;;;;;;;;6996998;28;20049;-81
2021/05/30 16:13:00;;;;;;;1.63;0.88;;;;;;;;;;6996164;28;20084;-80
2021/05/30 16:16:20;;;;;;;1.70;1.00;;;;;;;;;;6998290;28;20102;-80
2021/05/30 16:19:41;;;;;;;1.48;1.00;;;;;;;;;;6998396;28;20059;-82
2021/05/30 16:23:02;;;;;;;1.45;1.10;;;;;;;;;;6999834;28;20052;-81
2021/05/30 16:26:23;;;;;;;2.72;0.98;;;;;;;;;;7000746;28;20128;-82
2021/05/30 16:29:43;;;;;;;1.30;1.20;;;;;;;;;;6998580;28;20041;-83
2021/05/30 16:33:04;;;;;;;1.23;1.13;;;;;;;;;;6994995;28;20127;-81
2021/05/30 16:36:24;;;;;;;6.63;1.42;;;;;;;;;;7001139;28;20367;-82
2021/05/30 16:39:45;;;;;;;6.53;1.75;;;;;;;;;;7010728;28;20051;-82
2021/05/30 16:43:06;;;;;;;7.18;1.48;;;;;;;;;;7009937;28;20464;-82
2021/05/30 16:46:27;;;;;;;10.30;1.70;;;;;;;;;;7015976;28;20106;-82
2021/05/30 16:49:47;;;;;;;5.35;1.38;;;;;;;;;;7023098;28;20083;-82
2021/05/30 16:53:09;;;;;;;8.15;1.63;;;;;;;;;;7000563;28;20136;-82
2021/05/30 16:56:30;;;;;;;7.85;1.70;;;;;;;;;;7011301;28;20170;-82
2021/05/30 16:59:51;;;;;;;6.50;1.80;;;;;;;;;;6995338;28;20045;-82
2021/05/30 17:03:11;;;;;;;6.88;1.75;;;;;;;;;;6994341;28;20047;-82
2021/05/30 17:06:32;;;;;;;4.40;1.30;;;;;;;;;;6996128;28;20486;-82
2021/05/30 17:09:52;;;;;;;4.93;1.48;;;;;;;;;;6994677;28;20113;-82
2021/05/30 17:13:13;;;;;;;1.50;1.10;;;;;;;;;;6994928;28;20557;-82
2021/05/30 17:16:34;;;;;;;3.28;1.00;;;;;;;;;;6994398;28;20478;-82
2021/05/30 17:19:54;;;;;;;8.10;1.23;;;;;;;;;;6986291;28;20105;-82
2021/05/30 17:23:16;;;;;;;5.15;1.25;;;;;;;;;;6999648;28;20547;-82
2021/05/30 17:26:37;;;;;;;2.42;1.45;;;;;;;;;;7019280;28;20055;-83
2021/05/30 17:29:57;;;;;;;11.82;1.23;;;;;;;;;;7005164;28;20098;-82
2021/05/30 17:33:18;;;;;;;2.75;1.30;;;;;;;;;;7004157;28;20136;-82
2021/05/30 17:36:41;;;;;;;5.55;1.30;;;;;;;;;;7000361;28;20392;-82
2021/05/30 17:40:03;;;;;;;2.95;1.65;;;;;;;;;;6972607;28;20060;-82
2021/05/30 17:43:23;;;;;;;3.65;1.60;;;;;;;;;;6989806;28;20060;-82
2021/05/30 17:46:44;;;;;;;2.53;1.30;;;;;;;;;;6996779;28;20126;-82
2021/05/30 17:50:06;;;;;;;4.70;1.30;;;;;;;;;;6993210;28;20060;-82
2021/05/30 17:53:28;;;;;;;1.40;1.20;;;;;;;;;;6993110;28;20505;-82
2021/05/30 17:56:49;;;;;;;2.75;1.05;;;;;;;;;;6995016;28;20064;-82
2021/05/30 18:00:10;;;;;;;4.45;1.35;;;;;;;;;;6993890;28;20068;-82
2021/05/30 18:03:31;;;;;;;2.60;1.33;;;;;;;;;;6992447;28;20051;-82
2021/05/30 18:06:53;;;;;;;2.25;1.08;;;;;;;;;;6993978;28;20045;-82
2021/05/30 18:10:14;;;;;;;2.72;1.42;;;;;;;;;;6990718;28;20044;-82
2021/05/30 18:13:35;;;;;;;3.90;1.63;;;;;;;;;;6994601;28;20098;-82
2021/05/30 18:16:55;;;;;;;3.88;1.48;;;;;;;;;;6980900;28;20052;-82
2021/05/30 18:20:16;;;;;;;3.67;1.10;;;;;;;;;;6995358;28;20098;-82
2021/05/30 18:23:37;;;;;;;1.80;1.20;;;;;;;;;;6994630;28;20047;-82
2021/05/30 18:26:58;;;;;;;2.47;1.30;;;;;;;;;;6994432;28;20052;-82
2021/05/30 18:30:20;;;;;;;1.55;1.00;;;;;;;;;;7005675;28;20045;-82
2021/05/30 18:33:40;;;;;;;1.20;1.10;;;;;;;;;;6994201;28;20044;-82
2021/05/30 18:37:01;;;;;;;4.43;1.90;;;;;;;;;;6994231;28;20059;-82
2021/05/30 18:40:23;;;;;;;1.00;0.95;;;;;;;;;;7001657;28;20040;-80
2021/05/30 18:43:43;;;;;;;1.15;1.05;;;;;;;;;;6994426;28;20439;-80
2021/05/30 18:47:04;;;;;;;2.10;1.10;;;;;;;;;;6993801;28;20536;-80
2021/05/30 18:50:24;;;;;;;2.15;1.30;;;;;;;;;;6994082;28;20080;-80
2021/05/30 18:53:46;;;;;;;2.70;1.25;;;;;;;;;;6996236;28;20072;-80
2021/05/30 18:57:07;;;;;;;2.55;1.05;;;;;;;;;;6994581;28;20048;-80
2021/05/30 19:00:28;;;;;;;1.30;1.20;;;;;;;;;;6992532;28;20075;-80
2021/05/30 19:03:48;;;;;;;1.77;1.10;;;;;;;;;;6990073;28;20057;-80
2021/05/30 19:07:09;;;;;;;3.28;1.25;;;;;;;;;;6981522;28;20045;-80
2021/05/30 19:10:29;;;;;;;2.05;1.30;;;;;;;;;;6990066;28;20056;-80
2021/05/30 19:13:50;;;;;;;3.22;1.00;;;;;;;;;;6981851;28;20056;-80
2021/05/30 19:17:11;;;;;;;1.75;0.90;;;;;;;;;;6994790;28;20053;-80
2021/05/30 19:20:31;;;;;;;1.40;1.00;;;;;;;;;;6994242;28;20052;-80
2021/05/30 19:23:51;;;;;;;1.30;1.10;;;;;;;;;;6991439;28;20128;-80
2021/05/30 19:27:12;;;;;;;2.75;1.50;;;;;;;;;;6992727;28;20060;-80
2021/05/30 19:30:32;;;;;;;1.38;1.00;;;;;;;;;;6991582;28;20135;-80
2021/05/30 19:33:53;;;;;;;1.80;1.10;;;;;;;;;;7006001;28;20048;-80
2021/05/30 19:37:13;;;;;;;1.45;1.10;;;;;;;;;;6995448;28;20052;-80
2021/05/30 19:40:34;;;;;;;1.23;1.13;;;;;;;;;;7006403;28;20508;-80
2021/05/30 19:43:54;;;;;;;2.67;1.13;;;;;;;;;;6993661;28;20041;-81
2021/05/30 19:47:15;;;;;;;1.45;1.20;;;;;;;;;;7012538;28;20131;-81
2021/05/30 19:50:35;;;;;;;19.70;1.70;;;;;;;;;;7010130;28;20051;-80
2021/05/30 19:53:56;;;;;;;1.23;1.05;;;;;;;;;;6998758;28;20079;-81
2021/05/30 19:57:16;;;;;;;1.02;0.90;;;;;;;;;;6999464;28;20131;-80
2021/05/30 20:00:38;;;;;;;1.55;1.10;;;;;;;;;;7014613;28;20052;-81
2021/05/30 20:03:58;;;;;;;2.40;1.10;;;;;;;;;;7003384;28;20398;-81
2021/05/30 20:07:19;;;;;;;2.35;1.02;;;;;;;;;;7004322;28;20500;-81
2021/05/30 20:10:39;;;;;;;1.10;0.95;;;;;;;;;;7008778;28;20135;-79
2021/05/30 20:14:00;;;;;;;1.75;1.08;;;;;;;;;;7004430;28;20495;-83